Sao Tome das Letras, Brazil
Current Conditions -  °F | °C
As of 1:00 PM on Monday 22 Dec 2014 (Local Time) from SBGW Reporting Station
Scattered Clouds Scattered Clouds  
Wind Chill: 90°   Ceiling: Unl
Heat Index: 93°   Visibility: 6mi
Dew Point: 68°   Wind: 2mph
Humidity: 49%   Direction: 350°N
Pressure: 29.91"   Gusts: NA
Location:  21.72°S, 44.98°W
Report Text: SBGW 221500Z 35002KT 9999 SCT025 SCT100 32/20 Q1013
Loading
Personal Weather Stations






























Interactive Weather Map New forecast layout! Learn more

10-Day Weather Forecast

Advertisements
Track Severe Weather on mobile